KMFV/MFV METAR and TAF weather

Enter ICAO airport designator
Station Type Date Time Source
KMFV METAR 2021/07/30 07:55 UTC NOAA

KMFV 300755Z AUTO 24009G18KT 10SM CLR 27/24 A2977 RMK AO2 T02670237


Station Type Date Time Source
KMFV Decoded METAR 2021/07/30 07:55 UTC NOAA

Melfa / Accomack Airport, VA, United States (KMFV) 37-39N 075-46W
Jul 30, 2021 - 03:55 AM EDT / 2021.07.30 0755 UTC
Wind: from the WSW (240 degrees) at 10 MPH (9 KT) gusting to 21 MPH (18 KT):0
Visibility: 10 mile(s):0
Sky conditions: clear
Temperature: 80.1 F (26.7 C)
Dew Point: 74.7 F (23.7 C)
Relative Humidity: 83%
Pressure (altimeter): 29.77 in. Hg (1008 hPa)
ob: KMFV 300755Z AUTO 24009G18KT 10SM CLR 27/24 A2977 RMK AO2 T02670237
cycle: 8

Station Type Date Time Source
KMFV TAF UTC NOAA

Error!

Example: see airport list